Hilltown, Pennsylvania
Current Conditions -  °F | °C
As of 9:35 PM on Friday 28 Nov 2014 (Local Time) from KLOM Reporting Station
Clear Clear  
Wind Chill: 27°   Ceiling: Unl
Heat Index: 27°   Visibility: 10mi
Dew Point: 21°   Wind: 0mph
Humidity: 80%   Direction: NA
Pressure: 30.27"   Gusts: NA
Location:  40.2°N, 75.14°W
Report Text: KLOM 290235Z AUTO 00000KT 10SM CLR M03/M06 A3027 RMK AO1
Loading
Personal Weather Stations






























Interactive Weather Map New forecast layout! Learn more

10-Day Weather Forecast

Advertisements
Track Severe Weather on mobile